27°C Temp
6°C Dewpoint
% Humidity
Temperature
51 KM/H
32 MPH
28 KTS
100°
Due East

Wind Speed
Clear
Conditions
Pressure 1014.92 (hPa) - 29.97 (in)
Visibility 6.2 (mi) - 10.0 (km)

Current Conditions
YPPH
Location 20(km)
Metar :YPPH 101500Z 10028G40KT CAVOK 27/06 Q1015 FM1500 MOD TURB BLW 3000FT TL1600 FM1600 SEV TURB BLW 3000FT
Tue 10th December 23:00 pm

Airport
  Metar Aviation API Data Provided by https://www.checkwx.com/ PHP scripts by weather34.com ©2019